sensor_id;sensor_type;location;lat;lon;timestamp;pressure;altitude;pressure_sealevel;temperature;humidity
38786;BME280;24535;45.508;12.252;2023-01-15T00:00:59;101953.47;;;8.66;66.42
38786;BME280;24535;45.508;12.252;2023-01-15T00:03:25;101958.78;;;8.65;66.73
38786;BME280;24535;45.508;12.252;2023-01-15T00:05:51;101958.72;;;8.66;66.95
38786;BME280;24535;45.508;12.252;2023-01-15T00:08:17;101950.13;;;8.63;66.57
38786;BME280;24535;45.508;12.252;2023-01-15T00:10:42;101947.50;;;8.63;67.34
38786;BME280;24535;45.508;12.252;2023-01-15T00:13:08;101951.81;;;8.64;66.47
38786;BME280;24535;45.508;12.252;2023-01-15T00:15:34;101951.88;;;8.62;67.10
38786;BME280;24535;45.508;12.252;2023-01-15T00:18:00;101950.97;;;8.63;67.13
38786;BME280;24535;45.508;12.252;2023-01-15T00:20:26;101943.94;;;8.64;67.47
38786;BME280;24535;45.508;12.252;2023-01-15T00:22:51;101945.56;;;8.66;66.72
38786;BME280;24535;45.508;12.252;2023-01-15T00:25:17;101938.69;;;8.64;66.81
38786;BME280;24535;45.508;12.252;2023-01-15T00:28:18;101946.50;;;8.65;67.33
38786;BME280;24535;45.508;12.252;2023-01-15T00:30:43;101932.44;;;8.66;66.76
38786;BME280;24535;45.508;12.252;2023-01-15T00:33:09;101927.19;;;8.66;67.25
38786;BME280;24535;45.508;12.252;2023-01-15T00:35:36;101916.69;;;8.66;67.24
38786;BME280;24535;45.508;12.252;2023-01-15T00:38:02;101923.66;;;8.68;67.33
38786;BME280;24535;45.508;12.252;2023-01-15T00:40:28;101920.13;;;8.69;67.04
38786;BME280;24535;45.508;12.252;2023-01-15T00:42:53;101924.44;;;8.70;66.88
38786;BME280;24535;45.508;12.252;2023-01-15T00:45:19;101921.03;;;8.68;66.56
38786;BME280;24535;45.508;12.252;2023-01-15T00:47:45;101915.78;;;8.68;66.55
38786;BME280;24535;45.508;12.252;2023-01-15T00:50:13;101914.88;;;8.69;66.78
38786;BME280;24535;45.508;12.252;2023-01-15T00:52:40;101900.81;;;8.70;66.95
38786;BME280;24535;45.508;12.252;2023-01-15T00:55:07;101898.25;;;8.68;66.75
38786;BME280;24535;45.508;12.252;2023-01-15T00:57:33;101903.50;;;8.68;66.98
38786;BME280;24535;45.508;12.252;2023-01-15T00:59:58;101903.56;;;8.66;66.64
38786;BME280;24535;45.508;12.252;2023-01-15T01:02:24;101902.78;;;8.64;66.75
38786;BME280;24535;45.508;12.252;2023-01-15T01:04:49;101908.03;;;8.64;66.69
38786;BME280;24535;45.508;12.252;2023-01-15T01:07:15;101909.72;;;8.65;67.02
38786;BME280;24535;45.508;12.252;2023-01-15T01:09:41;101901.91;;;8.64;66.75
38786;BME280;24535;45.508;12.252;2023-01-15T01:12:07;101894.09;;;8.62;67.21
38786;BME280;24535;45.508;12.252;2023-01-15T01:14:33;101889.72;;;8.63;66.63
38786;BME280;24535;45.508;12.252;2023-01-15T01:16:58;101889.56;;;8.66;66.82
38786;BME280;24535;45.508;12.252;2023-01-15T01:19:25;101886.03;;;8.67;67.20
38786;BME280;24535;45.508;12.252;2023-01-15T01:21:51;101878.94;;;8.69;66.98
38786;BME280;24535;45.508;12.252;2023-01-15T01:24:22;101877.03;;;8.73;67.47
38786;BME280;24535;45.508;12.252;2023-01-15T01:26:48;101871.72;;;8.74;66.99
38786;BME280;24535;45.508;12.252;2023-01-15T01:29:16;101869.94;;;8.75;67.13
38786;BME280;24535;45.508;12.252;2023-01-15T01:31:43;101865.41;;;8.78;67.67
38786;BME280;24535;45.508;12.252;2023-01-15T01:34:10;101872.25;;;8.82;67.39
38786;BME280;24535;45.508;12.252;2023-01-15T01:36:37;101864.25;;;8.85;67.53
38786;BME280;24535;45.508;12.252;2023-01-15T01:39:04;101859.75;;;8.89;67.85
38786;BME280;24535;45.508;12.252;2023-01-15T01:41:33;101853.44;;;8.93;67.23
38786;BME280;24535;45.508;12.252;2023-01-15T01:44:02;101854.09;;;8.98;67.80
38786;BME280;24535;45.508;12.252;2023-01-15T01:46:31;101858.25;;;9.04;67.47
38786;BME280;24535;45.508;12.252;2023-01-15T01:49:03;101858.91;;;9.09;67.31
38786;BME280;24535;45.508;12.252;2023-01-15T01:51:34;101854.38;;;9.12;67.04
38786;BME280;24535;45.508;12.252;2023-01-15T01:54:03;101849.00;;;9.15;67.28
38786;BME280;24535;45.508;12.252;2023-01-15T01:56:32;101843.66;;;9.17;66.65
38786;BME280;24535;45.508;12.252;2023-01-15T01:58:58;101843.53;;;9.20;65.83
38786;BME280;24535;45.508;12.252;2023-01-15T02:01:24;101844.44;;;9.19;66.05
38786;BME280;24535;45.508;12.252;2023-01-15T02:03:51;101839.97;;;9.21;66.29
38786;BME280;24535;45.508;12.252;2023-01-15T02:06:17;101835.56;;;9.22;66.45
38786;BME280;24535;45.508;12.252;2023-01-15T02:08:43;101832.84;;;9.23;66.21
38786;BME280;24535;45.508;12.252;2023-01-15T02:11:15;101826.75;;;9.23;66.12
38786;BME280;24535;45.508;12.252;2023-01-15T02:13:52;101823.06;;;9.27;66.36
38786;BME280;24535;45.508;12.252;2023-01-15T02:16:46;101819.44;;;9.29;66.15
38786;BME280;24535;45.508;12.252;2023-01-15T02:19:39;101821.97;;;9.32;66.03
38786;BME280;24535;45.508;12.252;2023-01-15T02:27:23;101805.13;;;9.36;66.10
38786;BME280;24535;45.508;12.252;2023-01-15T02:32:28;101798.94;;;9.37;65.78
38786;BME280;24535;45.508;12.252;2023-01-15T02:34:59;101791.91;;;9.38;65.38
38786;BME280;24535;45.508;12.252;2023-01-15T02:37:29;101792.63;;;9.41;65.72
38786;BME280;24535;45.508;12.252;2023-01-15T02:40:04;101788.19;;;9.42;65.24
38786;BME280;24535;45.508;12.252;2023-01-15T02:42:33;101781.25;;;9.41;65.38
38786;BME280;24535;45.508;12.252;2023-01-15T02:45:02;101780.31;;;9.42;65.83
38786;BME280;24535;45.508;12.252;2023-01-15T02:47:33;101778.47;;;9.44;65.86
38786;BME280;24535;45.508;12.252;2023-01-15T02:50:02;101777.56;;;9.45;65.69
38786;BME280;24535;45.508;12.252;2023-01-15T02:52:34;101767.75;;;9.49;65.06
38786;BME280;24535;45.508;12.252;2023-01-15T02:55:10;101769.38;;;9.51;65.25
38786;BME280;24535;45.508;12.252;2023-01-15T02:57:37;101764.28;;;9.48;64.95
38786;BME280;24535;45.508;12.252;2023-01-15T03:00:09;101763.38;;;9.48;65.20
38786;BME280;24535;45.508;12.252;2023-01-15T03:02:43;101752.03;;;9.47;65.09
38786;BME280;24535;45.508;12.252;2023-01-15T03:05:17;101759.78;;;9.50;65.47
38786;BME280;24535;45.508;12.252;2023-01-15T03:07:56;101757.00;;;9.53;65.58
38786;BME280;24535;45.508;12.252;2023-01-15T03:11:10;101748.91;;;9.58;65.41
38786;BME280;24535;45.508;12.252;2023-01-15T03:13:47;101753.19;;;9.60;65.61
38786;BME280;24535;45.508;12.252;2023-01-15T03:16:35;101750.38;;;9.63;65.52
38786;BME280;24535;45.508;12.252;2023-01-15T03:19:12;101746.06;;;9.62;65.16
38786;BME280;24535;45.508;12.252;2023-01-15T03:22:25;101746.06;;;9.62;65.39
38786;BME280;24535;45.508;12.252;2023-01-15T03:24:39;101744.28;;;9.63;65.51
38786;BME280;24535;45.508;12.252;2023-01-15T03:27:05;101746.91;;;9.63;65.32
38786;BME280;24535;45.508;12.252;2023-01-15T03:29:38;101745.22;;;9.62;65.53
38786;BME280;24535;45.508;12.252;2023-01-15T03:32:05;101740.78;;;9.62;64.91
38786;BME280;24535;45.508;12.252;2023-01-15T03:34:37;101733.75;;;9.63;64.97
38786;BME280;24535;45.508;12.252;2023-01-15T03:37:04;101728.63;;;9.60;65.17
38786;BME280;24535;45.508;12.252;2023-01-15T03:39:30;101735.53;;;9.62;65.07
38786;BME280;24535;45.508;12.252;2023-01-15T03:42:05;101725.94;;;9.61;65.11
38786;BME280;24535;45.508;12.252;2023-01-15T03:44:45;101712.78;;;9.61;65.04
38786;BME280;24535;45.508;12.252;2023-01-15T03:47:24;101707.53;;;9.61;64.97
38786;BME280;24535;45.508;12.252;2023-01-15T03:57:35;101694.44;;;9.60;64.95
38786;BME280;24535;45.508;12.252;2023-01-15T04:00:11;101688.19;;;9.62;64.98
38786;BME280;24535;45.508;12.252;2023-01-15T04:02:38;101675.03;;;9.62;64.60
38786;BME280;24535;45.508;12.252;2023-01-15T04:05:05;101684.63;;;9.63;64.58
38786;BME280;24535;45.508;12.252;2023-01-15T04:07:33;101683.72;;;9.64;64.47
38786;BME280;24535;45.508;12.252;2023-01-15T04:09:59;101686.41;;;9.63;64.32
38786;BME280;24535;45.508;12.252;2023-01-15T04:12:24;101689.16;;;9.60;64.16
38786;BME280;24535;45.508;12.252;2023-01-15T04:14:52;101686.53;;;9.60;64.34
38786;BME280;24535;45.508;12.252;2023-01-15T04:17:18;101686.72;;;9.57;64.53
38786;BME280;24535;45.508;12.252;2023-01-15T04:19:43;101683.38;;;9.53;64.52
38786;BME280;24535;45.508;12.252;2023-01-15T04:22:10;101685.19;;;9.51;64.34
38786;BME280;24535;45.508;12.252;2023-01-15T04:24:36;101680.09;;;9.48;63.95
38786;BME280;24535;45.508;12.252;2023-01-15T04:27:02;101680.25;;;9.45;64.59
38786;BME280;24535;45.508;12.252;2023-01-15T04:29:28;101688.19;;;9.44;64.69
38786;BME280;24535;45.508;12.252;2023-01-15T04:34:24;101692.59;;;9.43;65.05
38786;BME280;24535;45.508;12.252;2023-01-15T04:36:50;101682.25;;;9.40;65.00
38786;BME280;24535;45.508;12.252;2023-01-15T04:39:16;101679.63;;;9.40;64.94
38786;BME280;24535;45.508;12.252;2023-01-15T04:41:41;101681.31;;;9.41;65.27
38786;BME280;24535;45.508;12.252;2023-01-15T04:44:25;101666.38;;;9.41;65.16
38786;BME280;24535;45.508;12.252;2023-01-15T04:46:53;101663.84;;;9.40;64.98
38786;BME280;24535;45.508;12.252;2023-01-15T04:49:20;101664.69;;;9.40;65.09
38786;BME280;24535;45.508;12.252;2023-01-15T04:51:46;101662.97;;;9.39;65.38
38786;BME280;24535;45.508;12.252;2023-01-15T04:54:13;101662.06;;;9.40;65.12
38786;BME280;24535;45.508;12.252;2023-01-15T04:56:41;101651.53;;;9.40;65.18
38786;BME280;24535;45.508;12.252;2023-01-15T04:59:08;101648.06;;;9.40;65.48
38786;BME280;24535;45.508;12.252;2023-01-15T05:01:34;101655.78;;;9.43;65.03
38786;BME280;24535;45.508;12.252;2023-01-15T05:04:00;101650.69;;;9.40;64.82
38786;BME280;24535;45.508;12.252;2023-01-15T05:06:27;101641.91;;;9.39;64.71
38786;BME280;24535;45.508;12.252;2023-01-15T05:08:53;101644.56;;;9.39;64.73
38786;BME280;24535;45.508;12.252;2023-01-15T05:11:18;101638.63;;;9.36;65.06
38786;BME280;24535;45.508;12.252;2023-01-15T05:13:44;101640.38;;;9.35;64.71
38786;BME280;24535;45.508;12.252;2023-01-15T05:16:15;101629.94;;;9.34;64.71
38786;BME280;24535;45.508;12.252;2023-01-15T05:18:41;101625.75;;;9.30;64.85
38786;BME280;24535;45.508;12.252;2023-01-15T05:21:21;101627.59;;;9.28;64.44
38786;BME280;24535;45.508;12.252;2023-01-15T05:23:49;101624.09;;;9.27;65.06
38786;BME280;24535;45.508;12.252;2023-01-15T05:26:15;101620.00;;;9.22;64.79
38786;BME280;24535;45.508;12.252;2023-01-15T05:28:41;101620.84;;;9.22;64.93
38786;BME280;24535;45.508;12.252;2023-01-15T05:31:17;101619.06;;;9.23;65.04
38786;BME280;24535;45.508;12.252;2023-01-15T05:33:45;101616.38;;;9.24;65.07
38786;BME280;24535;45.508;12.252;2023-01-15T05:36:13;101616.38;;;9.24;64.83
38786;BME280;24535;45.508;12.252;2023-01-15T05:38:39;101619.91;;;9.23;65.12
38786;BME280;24535;45.508;12.252;2023-01-15T05:41:07;101608.63;;;9.21;64.99
38786;BME280;24535;45.508;12.252;2023-01-15T05:43:54;101621.06;;;9.18;64.83
38786;BME280;24535;45.508;12.252;2023-01-15T05:46:20;101622.84;;;9.17;65.24
38786;BME280;24535;45.508;12.252;2023-01-15T05:48:46;101617.59;;;9.17;65.35
38786;BME280;24535;45.508;12.252;2023-01-15T05:51:12;101624.53;;;9.18;65.19
38786;BME280;24535;45.508;12.252;2023-01-15T05:53:37;101613.09;;;9.19;65.60
38786;BME280;24535;45.508;12.252;2023-01-15T05:56:03;101608.63;;;9.21;65.31
38786;BME280;24535;45.508;12.252;2023-01-15T05:58:30;101613.19;;;9.18;64.39
38786;BME280;24535;45.508;12.252;2023-01-15T06:00:55;101609.84;;;9.14;64.56
38786;BME280;24535;45.508;12.252;2023-01-15T06:03:22;101612.59;;;9.11;64.82
38786;BME280;24535;45.508;12.252;2023-01-15T06:05:54;101614.47;;;9.09;64.84
38786;BME280;24535;45.508;12.252;2023-01-15T06:08:21;101609.41;;;9.04;65.27
38786;BME280;24535;45.508;12.252;2023-01-15T06:10:47;101612.94;;;9.03;65.22
38786;BME280;24535;45.508;12.252;2023-01-15T06:13:14;101607.84;;;9.00;65.16
38786;BME280;24535;45.508;12.252;2023-01-15T06:15:39;101613.03;;;9.02;65.50
38786;BME280;24535;45.508;12.252;2023-01-15T06:18:05;101614.81;;;9.01;65.49
38786;BME280;24535;45.508;12.252;2023-01-15T06:20:31;101616.50;;;9.02;65.54
38786;BME280;24535;45.508;12.252;2023-01-15T06:22:56;101612.91;;;9.05;65.67
38786;BME280;24535;45.508;12.252;2023-01-15T06:25:22;101614.59;;;9.06;65.78
38786;BME280;24535;45.508;12.252;2023-01-15T06:27:47;101615.44;;;9.06;65.61
38786;BME280;24535;45.508;12.252;2023-01-15T06:30:14;101620.56;;;9.09;65.68
38786;BME280;24535;45.508;12.252;2023-01-15T06:32:40;101613.44;;;9.11;65.86
38786;BME280;24535;45.508;12.252;2023-01-15T06:35:06;101608.97;;;9.13;65.50
38786;BME280;24535;45.508;12.252;2023-01-15T06:37:31;101604.44;;;9.17;65.88
38786;BME280;24535;45.508;12.252;2023-01-15T06:39:57;101610.41;;;9.21;65.68
38786;BME280;24535;45.508;12.252;2023-01-15T06:42:23;101605.19;;;9.19;65.54
38786;BME280;24535;45.508;12.252;2023-01-15T06:45:09;101613.75;;;9.24;65.44
38786;BME280;24535;45.508;12.252;2023-01-15T06:47:53;101608.50;;;9.24;65.59
38786;BME280;24535;45.508;12.252;2023-01-15T06:50:19;101600.66;;;9.23;65.72
38786;BME280;24535;45.508;12.252;2023-01-15T06:52:44;101604.13;;;9.23;66.04
38786;BME280;24535;45.508;12.252;2023-01-15T06:55:10;101603.22;;;9.24;66.08
38786;BME280;24535;45.508;12.252;2023-01-15T06:57:39;101604.78;;;9.28;65.77
38786;BME280;24535;45.508;12.252;2023-01-15T07:00:08;101594.97;;;9.32;66.32
38786;BME280;24535;45.508;12.252;2023-01-15T07:02:33;101599.22;;;9.34;65.37
38786;BME280;24535;45.508;12.252;2023-01-15T07:04:59;101589.56;;;9.35;65.87
38786;BME280;24535;45.508;12.252;2023-01-15T07:07:26;101591.09;;;9.39;65.91
38786;BME280;24535;45.508;12.252;2023-01-15T07:09:52;101592.84;;;9.40;65.75
38786;BME280;24535;45.508;12.252;2023-01-15T07:12:18;101593.69;;;9.40;65.62
38786;BME280;24535;45.508;12.252;2023-01-15T07:14:43;101579.59;;;9.41;65.30
38786;BME280;24535;45.508;12.252;2023-01-15T07:17:09;101569.84;;;9.44;65.54
38786;BME280;24535;45.508;12.252;2023-01-15T07:19:35;101557.63;;;9.43;65.03
38786;BME280;24535;45.508;12.252;2023-01-15T07:22:01;101548.81;;;9.44;65.41
38786;BME280;24535;45.508;12.252;2023-01-15T07:24:26;101549.59;;;9.46;64.92
38786;BME280;24535;45.508;12.252;2023-01-15T07:26:52;101539.94;;;9.46;64.76
38786;BME280;24535;45.508;12.252;2023-01-15T07:29:18;101546.88;;;9.47;65.25
38786;BME280;24535;45.508;12.252;2023-01-15T07:31:43;101554.53;;;9.52;65.15
38786;BME280;24535;45.508;12.252;2023-01-15T07:34:09;101548.28;;;9.54;65.68
38786;BME280;24535;45.508;12.252;2023-01-15T07:36:35;101549.84;;;9.58;65.38
38786;BME280;24535;45.508;12.252;2023-01-15T07:39:05;101541.88;;;9.60;65.08
38786;BME280;24535;45.508;12.252;2023-01-15T07:41:32;101543.59;;;9.61;65.41
38786;BME280;24535;45.508;12.252;2023-01-15T07:44:15;101549.56;;;9.64;65.31
38786;BME280;24535;45.508;12.252;2023-01-15T07:46:59;101559.84;;;9.69;65.16
38786;BME280;24535;45.508;12.252;2023-01-15T07:49:44;101561.31;;;9.75;65.23
38786;BME280;24535;45.508;12.252;2023-01-15T07:52:19;101553.25;;;9.78;65.27
38786;BME280;24535;45.508;12.252;2023-01-15T07:54:46;101551.38;;;9.80;64.73
38786;BME280;24535;45.508;12.252;2023-01-15T07:57:14;101554.66;;;9.85;64.78
38786;BME280;24535;45.508;12.252;2023-01-15T07:59:41;101546.59;;;9.88;64.98
38786;BME280;24535;45.508;12.252;2023-01-15T08:02:06;101555.13;;;9.93;65.03
38786;BME280;24535;45.508;12.252;2023-01-15T08:04:32;101544.41;;;9.96;64.92
38786;BME280;24535;45.508;12.252;2023-01-15T08:06:59;101532.19;;;9.95;64.83
38786;BME280;24535;45.508;12.252;2023-01-15T08:09:25;101553.09;;;9.98;65.04
38786;BME280;24535;45.508;12.252;2023-01-15T08:11:51;101554.66;;;10.02;64.92
38786;BME280;24535;45.508;12.252;2023-01-15T08:14:35;101551.78;;;10.07;64.87
38786;BME280;24535;45.508;12.252;2023-01-15T08:17:19;101529.63;;;10.11;64.60
38786;BME280;24535;45.508;12.252;2023-01-15T08:19:44;101532.09;;;10.14;64.63
38786;BME280;24535;45.508;12.252;2023-01-15T08:22:10;101530.31;;;10.14;64.09
38786;BME280;24535;45.508;12.252;2023-01-15T08:24:36;101535.44;;;10.18;64.73
38786;BME280;24535;45.508;12.252;2023-01-15T08:27:02;101541.38;;;10.21;65.28
38786;BME280;24535;45.508;12.252;2023-01-15T08:29:27;101535.91;;;10.26;64.49
38786;BME280;24535;45.508;12.252;2023-01-15T08:31:53;101535.06;;;10.25;64.30
38786;BME280;24535;45.508;12.252;2023-01-15T08:34:18;101533.97;;;10.29;64.50
38786;BME280;24535;45.508;12.252;2023-01-15T08:37:07;101545.00;;;10.36;64.17
38786;BME280;24535;45.508;12.252;2023-01-15T08:39:33;101542.22;;;10.39;64.65
38786;BME280;24535;45.508;12.252;2023-01-15T08:41:58;101550.03;;;10.40;64.41
38786;BME280;24535;45.508;12.252;2023-01-15T08:44:24;101548.19;;;10.43;64.52
38786;BME280;24535;45.508;12.252;2023-01-15T08:46:50;101542.06;;;10.42;64.27
38786;BME280;24535;45.508;12.252;2023-01-15T08:49:17;101544.53;;;10.45;63.90
38786;BME280;24535;45.508;12.252;2023-01-15T08:51:44;101545.44;;;10.44;63.36
38786;BME280;24535;45.508;12.252;2023-01-15T08:54:10;101537.66;;;10.43;63.41
38786;BME280;24535;45.508;12.252;2023-01-15T08:56:36;101540.34;;;10.41;63.48
38786;BME280;24535;45.508;12.252;2023-01-15T08:59:06;101545.44;;;10.44;63.60
38786;BME280;24535;45.508;12.252;2023-01-15T09:01:34;101545.53;;;10.43;63.63
38786;BME280;24535;45.508;12.252;2023-01-15T09:04:00;101547.25;;;10.44;63.52
38786;BME280;24535;45.508;12.252;2023-01-15T09:06:26;101548.09;;;10.44;64.01
38786;BME280;24535;45.508;12.252;2023-01-15T09:08:51;101553.09;;;10.49;63.70
38786;BME280;24535;45.508;12.252;2023-01-15T09:11:17;101545.16;;;10.50;63.92
38786;BME280;24535;45.508;12.252;2023-01-15T09:13:42;101559.75;;;10.56;64.30
38786;BME280;24535;45.508;12.252;2023-01-15T09:16:08;101550.84;;;10.58;63.90
38786;BME280;24535;45.508;12.252;2023-01-15T09:18:36;101539.22;;;10.62;63.72
38786;BME280;24535;45.508;12.252;2023-01-15T09:21:02;101539.22;;;10.62;63.61
38786;BME280;24535;45.508;12.252;2023-01-15T09:23:28;101538.28;;;10.63;63.68
38786;BME280;24535;45.508;12.252;2023-01-15T09:25:59;101534.53;;;10.68;64.21
38786;BME280;24535;45.508;12.252;2023-01-15T09:28:26;101532.59;;;10.71;63.85
38786;BME280;24535;45.508;12.252;2023-01-15T09:30:51;101522.03;;;10.71;64.19
38786;BME280;24535;45.508;12.252;2023-01-15T09:33:17;101530.69;;;10.73;63.40
38786;BME280;24535;45.508;12.252;2023-01-15T09:35:42;101536.59;;;10.78;63.66
38786;BME280;24535;45.508;12.252;2023-01-15T09:38:15;101541.78;;;10.80;63.55
38786;BME280;24535;45.508;12.252;2023-01-15T09:43:36;101549.25;;;10.87;63.68
38786;BME280;24535;45.508;12.252;2023-01-15T09:46:09;101541.25;;;10.89;63.32
38786;BME280;24535;45.508;12.252;2023-01-15T09:48:49;101539.56;;;10.88;63.59
38786;BME280;24535;45.508;12.252;2023-01-15T09:57:03;101520.78;;;10.94;63.26
38786;BME280;24535;45.508;12.252;2023-01-15T09:59:37;101520.69;;;10.96;63.20
38786;BME280;24535;45.508;12.252;2023-01-15T10:04:45;101509.13;;;10.98;63.05
38786;BME280;24535;45.508;12.252;2023-01-15T10:09:59;101507.06;;;11.03;63.57
38786;BME280;24535;45.508;12.252;2023-01-15T10:12:29;101504.28;;;11.06;63.21
38786;BME280;24535;45.508;12.252;2023-01-15T10:17:44;101497.91;;;11.10;63.28
38786;BME280;24535;45.508;12.252;2023-01-15T10:20:14;101481.88;;;11.13;63.18
38786;BME280;24535;45.508;12.252;2023-01-15T10:23:09;101475.59;;;11.16;63.33
38786;BME280;24535;45.508;12.252;2023-01-15T10:25:48;101474.75;;;11.16;63.58
38786;BME280;24535;45.508;12.252;2023-01-15T10:31:23;101480.16;;;11.28;63.11
38786;BME280;24535;45.508;12.252;2023-01-15T10:37:03;101480.66;;;11.35;62.23
38786;BME280;24535;45.508;12.252;2023-01-15T10:39:57;101464.06;;;11.33;62.62
38786;BME280;24535;45.508;12.252;2023-01-15T10:45:22;101457.47;;;11.40;62.73
38786;BME280;24535;45.508;12.252;2023-01-15T10:47:54;101452.09;;;11.42;63.31
38786;BME280;24535;45.508;12.252;2023-01-15T10:50:25;101449.28;;;11.45;62.81
38786;BME280;24535;45.508;12.252;2023-01-15T10:55:41;101430.56;;;11.49;62.40
38786;BME280;24535;45.508;12.252;2023-01-15T10:58:24;101433.13;;;11.51;62.72
38786;BME280;24535;45.508;12.252;2023-01-15T11:01:03;101433.00;;;11.52;62.85
38786;BME280;24535;45.508;12.252;2023-01-15T11:03:38;101432.06;;;11.53;62.80
38786;BME280;24535;45.508;12.252;2023-01-15T11:06:07;101423.19;;;11.54;63.48
38786;BME280;24535;45.508;12.252;2023-01-15T11:08:36;101410.78;;;11.56;62.67
38786;BME280;24535;45.508;12.252;2023-01-15T11:11:22;101410.59;;;11.59;63.46
38786;BME280;24535;45.508;12.252;2023-01-15T11:14:08;101410.41;;;11.62;63.24
38786;BME280;24535;45.508;12.252;2023-01-15T11:16:52;101398.94;;;11.63;63.52
38786;BME280;24535;45.508;12.252;2023-01-15T11:19:37;101395.44;;;11.63;63.78
38786;BME280;24535;45.508;12.252;2023-01-15T11:22:10;101384.13;;;11.61;63.55
38786;BME280;24535;45.508;12.252;2023-01-15T11:24:57;101390.91;;;11.65;63.40
38786;BME280;24535;45.508;12.252;2023-01-15T11:27:34;101377.81;;;11.63;63.63
38786;BME280;24535;45.508;12.252;2023-01-15T11:30:04;101373.28;;;11.66;63.52
38786;BME280;24535;45.508;12.252;2023-01-15T11:32:37;101361.03;;;11.64;64.01
38786;BME280;24535;45.508;12.252;2023-01-15T11:35:15;101353.22;;;11.63;63.36
38786;BME280;24535;45.508;12.252;2023-01-15T11:37:41;101360.06;;;11.66;63.88
38786;BME280;24535;45.508;12.252;2023-01-15T11:40:21;101353.66;;;11.70;63.85
38786;BME280;24535;45.508;12.252;2023-01-15T11:42:50;101350.19;;;11.69;63.59
38786;BME280;24535;45.508;12.252;2023-01-15T11:45:48;101339.53;;;11.71;64.10
38786;BME280;24535;45.508;12.252;2023-01-15T11:48:44;101332.38;;;11.73;63.65
38786;BME280;24535;45.508;12.252;2023-01-15T11:51:30;101314.06;;;11.70;63.49
38786;BME280;24535;45.508;12.252;2023-01-15T11:54:02;101314.84;;;11.72;63.85
38786;BME280;24535;45.508;12.252;2023-01-15T11:56:29;101307.84;;;11.71;63.76
38786;BME280;24535;45.508;12.252;2023-01-15T11:59:00;101306.16;;;11.70;63.60
38786;BME280;24535;45.508;12.252;2023-01-15T12:01:33;101298.06;;;11.73;63.35
38786;BME280;24535;45.508;12.252;2023-01-15T12:04:02;101290.13;;;11.73;63.95
38786;BME280;24535;45.508;12.252;2023-01-15T12:06:30;101291.94;;;11.72;63.82
38786;BME280;24535;45.508;12.252;2023-01-15T12:14:40;101291.63;;;11.77;63.91
38786;BME280;24535;45.508;12.252;2023-01-15T12:20:02;101290.81;;;11.76;63.81
38786;BME280;24535;45.508;12.252;2023-01-15T12:27:57;101278.34;;;11.78;64.02
38786;BME280;24535;45.508;12.252;2023-01-15T12:33:02;101272.13;;;11.79;63.63
38786;BME280;24535;45.508;12.252;2023-01-15T12:35:32;101273.81;;;11.80;64.23
38786;BME280;24535;45.508;12.252;2023-01-15T12:38:55;101265.78;;;11.82;64.65
38786;BME280;24535;45.508;12.252;2023-01-15T12:41:06;101250.19;;;11.79;64.69
38786;BME280;24535;45.508;12.252;2023-01-15T12:43:34;101254.50;;;11.80;64.85
38786;BME280;24535;45.508;12.252;2023-01-15T12:46:23;101235.91;;;11.81;64.27
38786;BME280;24535;45.508;12.252;2023-01-15T12:51:27;101230.59;;;11.83;64.85
38786;BME280;24535;45.508;12.252;2023-01-15T12:54:10;101239.25;;;11.85;65.04
38786;BME280;24535;45.508;12.252;2023-01-15T12:59:56;101242.00;;;11.83;64.51
38786;BME280;24535;45.508;12.252;2023-01-15T13:07:52;101229.97;;;11.78;64.43
38786;BME280;24535;45.508;12.252;2023-01-15T13:10:23;101216.91;;;11.76;64.90
38786;BME280;24535;45.508;12.252;2023-01-15T13:12:54;101226.59;;;11.76;64.69
38786;BME280;24535;45.508;12.252;2023-01-15T13:15:26;101224.88;;;11.75;64.51
38786;BME280;24535;45.508;12.252;2023-01-15T13:18:25;101223.97;;;11.76;64.36
38786;BME280;24535;45.508;12.252;2023-01-15T13:20:54;101227.44;;;11.76;64.43
38786;BME280;24535;45.508;12.252;2023-01-15T13:37:32;101198.59;;;11.73;64.34
38786;BME280;24535;45.508;12.252;2023-01-15T13:40:17;101190.81;;;11.72;64.98
38786;BME280;24535;45.508;12.252;2023-01-15T13:42:49;101188.25;;;11.70;64.58
38786;BME280;24535;45.508;12.252;2023-01-15T13:47:45;101185.53;;;11.72;65.49
38786;BME280;24535;45.508;12.252;2023-01-15T13:50:15;101173.06;;;11.74;65.12
38786;BME280;24535;45.508;12.252;2023-01-15T13:52:42;101171.69;;;11.68;65.26
38786;BME280;24535;45.508;12.252;2023-01-15T13:57:43;101166.69;;;11.63;65.27
38786;BME280;24535;45.508;12.252;2023-01-15T14:02:55;101163.84;;;11.67;65.67
38786;BME280;24535;45.508;12.252;2023-01-15T14:05:33;101153.09;;;11.70;65.78
38786;BME280;24535;45.508;12.252;2023-01-15T14:08:01;101160.94;;;11.71;65.55
38786;BME280;24535;45.508;12.252;2023-01-15T14:16:14;101162.19;;;11.78;65.58
38786;BME280;24535;45.508;12.252;2023-01-15T14:18:56;101163.06;;;11.79;65.13
38786;BME280;24535;45.508;12.252;2023-01-15T14:26:59;101136.69;;;11.79;65.84
38786;BME280;24535;45.508;12.252;2023-01-15T14:34:56;101138.66;;;11.75;65.60
38786;BME280;24535;45.508;12.252;2023-01-15T14:37:26;101144.03;;;11.74;66.13
38786;BME280;24535;45.508;12.252;2023-01-15T14:39:56;101138.56;;;11.77;65.25
38786;BME280;24535;45.508;12.252;2023-01-15T14:42:33;101140.44;;;11.75;65.85
38786;BME280;24535;45.508;12.252;2023-01-15T14:45:26;101149.22;;;11.75;66.14
38786;BME280;24535;45.508;12.252;2023-01-15T14:47:54;101139.59;;;11.74;65.55
38786;BME280;24535;45.508;12.252;2023-01-15T15:04:12;101130.19;;;11.70;66.47
38786;BME280;24535;45.508;12.252;2023-01-15T15:06:54;101131.97;;;11.70;67.19
38786;BME280;24535;45.508;12.252;2023-01-15T15:09:28;101136.41;;;11.69;66.73